Time;durP1;ratioP1;P1;durP2;ratioP2;P2;SDS_P1;SDS_P2;PMS_P1;PMS_P2;Temp;Humidity;BMP_temperature;BMP_pressure;BME280_temperature;BME280_humidity;BME280_pressure;Samples;Min_cycle;Max_cycle;Signal;HPM_P1;HPM_P2
2022/07/20 00:00:12;;;;;;;1.55;0.80;;;;;;;19.77;49.92;100250.75;5067835;28;20080;-89
2022/07/20 00:02:37;;;;;;;0.40;0.40;;;;;;;19.71;49.18;100198.34;5068127;28;20032;-89
2022/07/20 00:05:04;;;;;;;0.40;0.40;;;;;;;19.75;49.04;100231.19;5048417;28;20085;-87
2022/07/20 00:07:29;;;;;;;1.08;0.80;;;;;;;19.68;49.26;100265.41;5025423;28;20174;-88
2022/07/20 00:12:39;;;;;;;1.20;1.00;;;;;;;19.43;49.14;100223.66;5047256;28;20067;-86
2022/07/20 00:15:05;;;;;;;1.00;0.68;;;;;;;19.13;49.23;100201.75;5062207;28;20032;-87
2022/07/20 00:17:31;;;;;;;0.85;0.60;;;;;;;19.30;49.85;100238.47;5067355;28;20024;-87
2022/07/20 00:19:56;;;;;;;1.88;0.75;;;;;;;19.19;49.93;100222.03;5059248;28;20039;-87
2022/07/20 00:22:22;;;;;;;0.38;0.38;;;;;;;19.48;49.32;100255.56;5047480;28;20069;-87
2022/07/20 00:24:47;;;;;;;0.98;0.80;;;;;;;19.33;48.96;100201.75;5060017;28;20037;-87
2022/07/20 00:27:12;;;;;;;0.77;0.70;;;;;;;19.75;49.28;100256.16;5066917;28;20060;-87
2022/07/20 00:29:38;;;;;;;1.25;0.60;;;;;;;19.38;49.68;100243.50;5067229;28;20559;-86
2022/07/20 00:32:04;;;;;;;1.60;1.13;;;;;;;19.53;49.97;100272.28;5067047;28;20078;-86
2022/07/20 00:34:29;;;;;;;2.10;1.20;;;;;;;19.27;50.10;100236.81;5066259;28;20418;-87
2022/07/20 00:36:54;;;;;;;0.57;0.50;;;;;;;19.57;49.42;100255.16;5067511;28;20485;-86
2022/07/20 00:39:20;;;;;;;0.77;0.68;;;;;;;19.52;50.12;100227.72;5067087;28;20112;-86
2022/07/20 00:41:45;;;;;;;1.27;1.17;;;;;;;19.40;50.30;100250.53;5053209;28;20039;-88
2022/07/20 00:44:11;;;;;;;0.93;0.63;;;;;;;19.56;50.12;100268.59;5046922;28;20464;-86
2022/07/20 00:46:39;;;;;;;1.05;0.77;;;;;;;19.33;50.86;100217.81;5046855;28;20056;-86
2022/07/20 00:49:06;;;;;;;1.55;1.45;;;;;;;19.73;50.97;100260.72;5046585;28;20797;-86
2022/07/20 00:51:32;;;;;;;1.10;0.82;;;;;;;19.57;50.33;100238.22;5057330;28;20040;-85
2022/07/20 00:53:58;;;;;;;0.63;0.50;;;;;;;19.57;49.96;100244.47;5060658;28;20521;-86
2022/07/20 00:56:24;;;;;;;3.15;0.80;;;;;;;19.79;50.07;100262.28;5047563;28;20038;-86
2022/07/20 00:58:51;;;;;;;0.93;0.90;;;;;;;19.83;49.28;100251.38;5046499;28;20143;-86
2022/07/20 01:01:16;;;;;;;0.50;0.50;;;;;;;19.78;50.22;100249.84;5064951;28;20075;-86
2022/07/20 01:03:43;;;;;;;1.73;0.73;;;;;;;19.77;50.82;100248.97;5065810;28;20061;-87
2022/07/20 01:06:09;;;;;;;0.45;0.45;;;;;;;19.75;50.43;100237.41;5066638;28;20032;-85
2022/07/20 01:08:35;;;;;;;1.13;0.90;;;;;;;19.66;50.83;100232.47;5067150;28;20094;-86
2022/07/20 01:11:01;;;;;;;1.50;0.82;;;;;;;19.47;51.25;100243.97;5051655;28;20041;-85
2022/07/20 01:13:27;;;;;;;0.50;0.50;;;;;;;19.27;51.52;100228.78;5047278;28;20044;-86
2022/07/20 01:15:53;;;;;;;1.25;0.93;;;;;;;19.29;51.15;100239.41;5046646;28;20068;-85
2022/07/20 01:18:18;;;;;;;1.38;1.02;;;;;;;19.45;51.20;100240.50;5034268;28;20041;-87
2022/07/20 01:20:46;;;;;;;0.75;0.75;;;;;;;19.44;51.76;100267.31;5070574;28;20036;-86
2022/07/20 01:23:16;;;;;;;1.75;1.10;;;;;;;19.46;51.70;100260.09;5067575;28;20024;-86
2022/07/20 01:25:42;;;;;;;1.25;0.88;;;;;;;19.43;51.65;100246.84;5032589;28;20039;-87
2022/07/20 01:28:12;;;;;;;1.42;0.80;;;;;;;19.18;52.42;100206.91;5050504;28;20712;-87
2022/07/20 01:30:39;;;;;;;0.95;0.68;;;;;;;19.42;52.48;100251.34;5050265;28;20476;-86
2022/07/20 01:33:06;;;;;;;2.30;0.77;;;;;;;19.01;52.15;100194.25;5051158;28;20043;-86
2022/07/20 01:35:31;;;;;;;0.68;0.50;;;;;;;19.02;51.51;100199.53;5054080;28;20060;-85
2022/07/20 01:37:57;;;;;;;2.30;1.00;;;;;;;19.22;51.77;100238.81;5070995;28;20060;-85
2022/07/20 01:40:22;;;;;;;0.63;0.63;;;;;;;19.14;53.24;100251.63;5070606;28;20091;-86
2022/07/20 01:42:48;;;;;;;0.68;0.68;;;;;;;18.89;53.97;100249.97;5068383;28;20088;-86
2022/07/20 01:45:14;;;;;;;1.13;0.95;;;;;;;18.92;53.67;100246.28;5050407;28;20119;-88
2022/07/20 01:47:39;;;;;;;1.90;1.02;;;;;;;18.68;54.47;100240.97;5050147;28;20033;-85
2022/07/20 01:50:06;;;;;;;0.80;0.80;;;;;;;18.85;54.63;100266.19;5050120;28;20080;-86
2022/07/20 01:52:31;;;;;;;1.33;1.10;;;;;;;18.81;54.85;100267.22;5050372;28;20037;-85
2022/07/20 01:54:57;;;;;;;1.40;1.08;;;;;;;18.33;55.70;100243.22;5069460;28;20136;-88
2022/07/20 01:57:22;;;;;;;1.35;1.20;;;;;;;18.36;55.74;100218.19;5070125;28;20032;-86
2022/07/20 01:59:48;;;;;;;1.35;0.75;;;;;;;18.54;55.42;100224.63;5052515;28;20044;-85
2022/07/20 02:02:13;;;;;;;1.33;0.93;;;;;;;18.30;55.10;100202.41;5049727;28;20548;-85
2022/07/20 02:04:39;;;;;;;1.35;1.10;;;;;;;18.51;55.51;100249.66;5066836;28;20040;-85
2022/07/20 02:07:04;;;;;;;0.95;0.90;;;;;;;18.60;55.80;100253.78;5062385;28;20044;-85
2022/07/20 02:09:30;;;;;;;1.85;1.58;;;;;;;18.48;55.93;100235.56;5049241;28;20086;-85
2022/07/20 02:11:56;;;;;;;1.73;1.00;;;;;;;18.41;55.80;100238.47;5054886;28;20052;-85
2022/07/20 02:14:21;;;;;;;1.30;0.95;;;;;;;18.46;55.60;100237.41;5066571;28;20040;-85
2022/07/20 02:16:47;;;;;;;3.13;0.88;;;;;;;18.07;56.21;100220.19;5049418;28;20425;-85
2022/07/20 02:19:12;;;;;;;2.47;1.48;;;;;;;18.17;56.57;100240.28;5050406;28;20032;-85
2022/07/20 02:21:38;;;;;;;1.67;1.17;;;;;;;18.03;57.05;100246.13;5049601;28;20481;-85
2022/07/20 02:24:04;;;;;;;2.25;0.75;;;;;;;17.84;57.70;100245.91;5065095;28;20044;-84
2022/07/20 02:26:29;;;;;;;1.75;0.95;;;;;;;17.84;57.46;100253.91;5069683;28;20033;-85
2022/07/20 02:28:55;;;;;;;1.65;0.98;;;;;;;17.90;57.79;100268.84;5069461;28;20105;-85
2022/07/20 02:31:22;;;;;;;0.75;0.70;;;;;;;17.70;57.26;100213.50;5057158;28;20035;-85
2022/07/20 02:33:49;;;;;;;2.03;1.10;;;;;;;17.98;57.27;100260.56;5061897;28;20070;-85
2022/07/20 02:36:15;;;;;;;1.13;0.70;;;;;;;17.64;57.88;100225.28;5061303;28;20041;-84
2022/07/20 02:38:41;;;;;;;4.18;1.15;;;;;;;17.45;58.09;100200.19;5049435;28;20064;-85
2022/07/20 02:41:07;;;;;;;1.40;1.15;;;;;;;17.76;57.96;100249.78;5044653;28;20561;-84
2022/07/20 02:43:32;;;;;;;1.23;1.00;;;;;;;17.58;58.25;100244.16;5060073;28;20055;-85
2022/07/20 02:45:58;;;;;;;0.60;0.60;;;;;;;17.52;58.79;100247.06;5069017;28;20068;-85
2022/07/20 02:48:23;;;;;;;0.70;0.70;;;;;;;17.56;59.38;100255.81;5068039;28;20033;-86
2022/07/20 02:50:49;;;;;;;0.52;0.52;;;;;;;17.54;59.82;100269.19;5051775;28;20032;-86
2022/07/20 02:53:15;;;;;;;4.25;1.42;;;;;;;17.40;59.70;100235.00;5030822;28;20096;-86
2022/07/20 02:55:42;;;;;;;2.72;1.90;;;;;;;17.35;59.87;100229.84;5069119;28;20024;-85
2022/07/20 02:58:08;;;;;;;1.42;1.23;;;;;;;17.33;60.18;100250.34;5069004;28;20024;-86
2022/07/20 03:00:34;;;;;;;1.33;1.20;;;;;;;17.41;59.94;100252.75;5064379;28;20112;-85
2022/07/20 03:02:59;;;;;;;2.42;1.67;;;;;;;17.33;60.10;100233.47;5048594;28;20124;-85
2022/07/20 03:05:25;;;;;;;3.55;2.10;;;;;;;17.11;61.21;100242.19;5048954;28;20029;-85
2022/07/20 03:07:50;;;;;;;1.40;1.10;;;;;;;17.35;60.40;100229.84;5060321;28;20032;-83
2022/07/20 03:10:16;;;;;;;1.33;1.20;;;;;;;17.62;59.95;100272.47;5047563;28;20031;-85
2022/07/20 03:12:42;;;;;;;3.58;2.25;;;;;;;17.33;59.66;100209.47;5041102;28;20119;-87
2022/07/20 03:15:09;;;;;;;1.85;1.67;;;;;;;17.77;59.57;100271.06;5048539;28;20037;-83
2022/07/20 03:17:46;;;;;;;1.10;0.98;;;;;;;17.83;59.33;100254.81;5037676;28;20089;-85
2022/07/20 03:20:13;;;;;;;3.80;1.40;;;;;;;17.91;58.84;100267.94;5060256;28;20067;-84
2022/07/20 03:22:40;;;;;;;1.98;1.40;;;;;;;17.82;58.81;100254.88;5061227;28;20028;-85
2022/07/20 03:25:06;;;;;;;1.15;1.05;;;;;;;17.41;59.34;100234.09;5068903;28;20043;-87
2022/07/20 03:27:32;;;;;;;1.63;1.40;;;;;;;17.60;59.56;100239.66;5068634;28;20024;-86
2022/07/20 03:29:57;;;;;;;1.48;1.23;;;;;;;17.96;58.88;100265.09;5068293;28;20047;-87
2022/07/20 03:32:23;;;;;;;7.22;1.27;;;;;;;17.91;58.64;100235.03;5054090;28;20043;-85
2022/07/20 03:34:48;;;;;;;1.48;1.30;;;;;;;17.72;59.29;100236.53;5048035;28;20442;-84
2022/07/20 03:37:14;;;;;;;1.65;1.33;;;;;;;17.69;58.99;100244.66;5061372;28;20028;-85
2022/07/20 03:39:39;;;;;;;2.42;1.20;;;;;;;17.69;58.50;100236.66;5049434;28;20469;-86
2022/07/20 03:42:05;;;;;;;1.25;0.90;;;;;;;17.91;58.19;100241.25;5060459;28;20036;-85
2022/07/20 03:44:30;;;;;;;2.45;1.20;;;;;;;18.05;58.22;100252.28;5067593;28;20417;-85
2022/07/20 03:46:56;;;;;;;1.20;0.88;;;;;;;17.99;58.89;100230.28;5068224;28;20025;-85
2022/07/20 03:49:22;;;;;;;1.55;0.88;;;;;;;18.03;58.79;100254.13;5067677;28;20413;-86
2022/07/20 03:51:47;;;;;;;2.28;1.48;;;;;;;17.84;58.05;100251.25;5063600;28;20062;-85
2022/07/20 03:54:13;;;;;;;1.33;0.82;;;;;;;17.77;57.80;100222.16;5051421;28;20513;-87
2022/07/20 03:56:41;;;;;;;0.68;0.68;;;;;;;18.02;57.25;100212.34;5051180;28;20525;-87
2022/07/20 03:59:08;;;;;;;1.92;1.23;;;;;;;18.35;56.24;100246.72;5047677;28;20044;-86
2022/07/20 04:01:34;;;;;;;1.38;0.95;;;;;;;18.75;55.84;100250.50;5047769;28;20032;-86
2022/07/20 04:03:59;;;;;;;2.30;1.15;;;;;;;19.03;55.65;100273.47;5048133;28;20033;-87
2022/07/20 04:06:25;;;;;;;0.93;0.77;;;;;;;18.88;55.85;100258.91;5057906;28;20036;-85
2022/07/20 04:08:51;;;;;;;2.22;1.13;;;;;;;18.82;55.84;100235.06;5049543;28;20036;-88
2022/07/20 04:11:16;;;;;;;0.75;0.75;;;;;;;19.03;55.27;100251.19;5037878;28;20043;-86
2022/07/20 04:13:42;;;;;;;2.28;1.13;;;;;;;19.41;54.80;100264.78;5056923;28;20052;-86
2022/07/20 04:16:07;;;;;;;4.25;1.63;;;;;;;19.28;54.18;100264.44;5067456;28;20032;-85
2022/07/20 04:18:33;;;;;;;1.30;1.05;;;;;;;18.54;55.55;100236.19;5066906;28;20599;-87
2022/07/20 04:20:58;;;;;;;1.90;1.58;;;;;;;19.21;55.45;100282.53;5058251;28;20032;-86
2022/07/20 04:23:24;;;;;;;2.45;1.33;;;;;;;19.25;54.88;100267.25;5046219;28;20065;-87
2022/07/20 04:25:49;;;;;;;1.38;1.10;;;;;;;19.26;54.31;100250.25;5045095;28;20529;-85
2022/07/20 04:28:16;;;;;;;1.45;1.13;;;;;;;19.48;53.84;100243.03;5045411;28;20029;-85
2022/07/20 04:30:41;;;;;;;1.33;1.23;;;;;;;19.43;53.87;100253.09;5047119;28;20116;-84
2022/07/20 04:33:07;;;;;;;1.23;1.10;;;;;;;19.39;53.69;100211.34;5047701;28;20123;-83
2022/07/20 04:35:33;;;;;;;3.35;1.98;;;;;;;19.61;53.88;100232.66;5048841;28;20120;-87
2022/07/20 04:37:58;;;;;;;3.97;2.17;;;;;;;19.82;53.58;100249.63;5045549;28;20028;-84
2022/07/20 04:40:24;;;;;;;3.20;1.83;;;;;;;20.00;53.81;100274.72;5042552;28;20566;-85
2022/07/20 04:42:49;;;;;;;1.85;1.13;;;;;;;20.18;53.58;100264.97;5037940;28;20041;-83
2022/07/20 04:45:15;;;;;;;0.82;0.70;;;;;;;20.32;53.40;100284.91;5046963;28;20033;-82
2022/07/20 04:47:40;;;;;;;3.70;1.83;;;;;;;20.55;52.49;100260.56;5046585;28;20560;-84
2022/07/20 04:50:06;;;;;;;2.13;1.13;;;;;;;20.83;52.83;100291.44;5047202;28;20043;-84
2022/07/20 04:52:32;;;;;;;2.50;1.23;;;;;;;20.81;52.44;100274.56;5047048;28;20033;-83
2022/07/20 04:54:57;;;;;;;5.32;2.78;;;;;;;20.87;52.47;100266.22;5046411;28;20036;-85
2022/07/20 04:57:23;;;;;;;1.98;1.65;;;;;;;21.29;52.22;100289.19;5046858;28;20542;-84
2022/07/20 04:59:48;;;;;;;0.98;0.93;;;;;;;21.27;51.35;100266.94;5046672;28;20196;-86
2022/07/20 05:02:14;;;;;;;5.82;1.67;;;;;;;20.98;52.07;100230.84;5028771;28;20546;-86
2022/07/20 05:04:39;;;;;;;2.28;1.17;;;;;;;21.08;52.16;100231.25;5046548;28;20033;-87
2022/07/20 05:07:05;;;;;;;4.53;2.10;;;;;;;21.10;52.09;100258.84;5046158;28;20047;-86
2022/07/20 05:09:30;;;;;;;2.15;1.23;;;;;;;21.33;51.26;100225.50;5046381;28;20418;-86
2022/07/20 05:11:57;;;;;;;2.03;1.38;;;;;;;21.65;50.56;100236.41;5049916;28;20447;-89
2022/07/20 05:14:23;;;;;;;1.92;0.93;;;;;;;21.88;50.13;100240.56;5035649;28;20053;-84
2022/07/20 05:16:49;;;;;;;1.70;1.40;;;;;;;22.00;50.23;100250.66;5049828;28;20127;-86
2022/07/20 05:19:14;;;;;;;3.60;1.58;;;;;;;22.13;49.88;100276.84;5058575;28;20029;-86
2022/07/20 05:21:40;;;;;;;3.33;1.17;;;;;;;22.13;49.67;100248.16;5045394;28;20032;-86
2022/07/20 05:24:06;;;;;;;1.85;1.45;;;;;;;22.41;47.77;100284.31;5045976;28;20037;-87
2022/07/20 05:26:31;;;;;;;1.55;1.13;;;;;;;22.31;49.25;100248.16;5046958;28;20120;-85
2022/07/20 05:28:57;;;;;;;3.03;1.67;;;;;;;22.45;48.48;100280.50;5046969;28;20138;-84
2022/07/20 05:31:22;;;;;;;1.83;1.02;;;;;;;22.83;47.89;100274.81;5045915;28;20409;-84
2022/07/20 05:33:48;;;;;;;2.17;1.30;;;;;;;22.82;46.94;100254.25;5045369;28;20045;-88
2022/07/20 05:36:13;;;;;;;3.05;1.58;;;;;;;22.71;46.37;100227.97;5056271;28;20020;-87
2022/07/20 05:38:39;;;;;;;1.20;1.00;;;;;;;22.70;45.98;100261.16;5066168;28;20166;-86
2022/07/20 05:41:05;;;;;;;1.35;0.90;;;;;;;23.15;45.49;100245.19;5058264;28;20107;-87
2022/07/20 05:43:30;;;;;;;1.73;1.42;;;;;;;23.38;44.82;100235.75;5026966;28;20033;-85
2022/07/20 05:45:56;;;;;;;8.43;2.67;;;;;;;23.63;44.19;100281.88;5055108;28;20040;-86
2022/07/20 05:48:22;;;;;;;1.58;0.98;;;;;;;23.76;45.41;100291.81;5063080;28;20115;-86
2022/07/20 05:50:47;;;;;;;1.40;0.98;;;;;;;24.03;42.46;100292.97;5047733;28;20028;-85
2022/07/20 05:53:13;;;;;;;0.80;0.68;;;;;;;24.21;44.11;100258.63;5045667;28;20032;-85
2022/07/20 05:55:41;;;;;;;1.08;0.93;;;;;;;24.27;42.63;100263.63;5054252;28;20029;-86
2022/07/20 05:58:08;;;;;;;3.08;1.58;;;;;;;24.40;42.04;100287.97;5046687;28;20036;-86
2022/07/20 06:00:34;;;;;;;1.17;0.80;;;;;;;24.65;40.76;100272.00;5046656;28;20037;-86
2022/07/20 06:03:00;;;;;;;1.90;0.95;;;;;;;25.06;41.06;100282.88;5045630;28;20094;-85
2022/07/20 06:05:26;;;;;;;0.60;0.60;;;;;;;24.71;40.48;100243.72;5056764;28;20040;-86
2022/07/20 06:07:56;;;;;;;1.80;0.88;;;;;;;24.84;43.45;100262.69;5055888;28;20035;-87
2022/07/20 06:10:23;;;;;;;1.48;1.10;;;;;;;25.65;40.17;100263.63;5066102;28;20239;-86
2022/07/20 06:12:49;;;;;;;2.22;1.38;;;;;;;25.35;39.44;100222.41;5049771;28;20175;-83
2022/07/20 06:15:15;;;;;;;5.78;1.27;;;;;;;25.87;39.09;100258.47;5057789;28;20116;-86
2022/07/20 06:17:41;;;;;;;1.63;0.63;;;;;;;25.69;39.35;100257.03;5032775;28;20033;-85
2022/07/20 06:20:10;;;;;;;1.65;0.82;;;;;;;25.61;39.00;100279.19;5060343;28;20078;-87
2022/07/20 06:22:37;;;;;;;1.58;0.80;;;;;;;25.91;38.75;100265.34;5040335;28;20103;-85
2022/07/20 06:25:04;;;;;;;3.35;0.82;;;;;;;26.05;39.51;100272.53;5040561;28;20446;-87
2022/07/20 06:27:30;;;;;;;1.15;0.80;;;;;;;26.11;38.50;100237.94;5054569;28;20041;-88
2022/07/20 06:29:56;;;;;;;1.30;1.00;;;;;;;26.61;36.82;100255.88;5064057;28;20425;-87
2022/07/20 06:32:22;;;;;;;1.83;1.00;;;;;;;26.92;37.21;100229.28;5067450;28;20059;-88
2022/07/20 06:34:47;;;;;;;2.17;1.00;;;;;;;26.44;37.90;100245.44;5069138;28;20498;-90
2022/07/20 06:37:13;;;;;;;1.50;1.02;;;;;;;26.63;36.87;100282.81;5052845;28;20032;-87
2022/07/20 06:39:38;;;;;;;1.88;1.00;;;;;;;26.48;37.24;100244.25;5067524;28;20024;-87
2022/07/20 06:42:04;;;;;;;1.73;1.15;;;;;;;26.72;36.39;100257.84;5069291;28;20027;-86
2022/07/20 06:44:29;;;;;;;1.02;0.73;;;;;;;26.98;37.63;100279.41;5069326;28;20028;-86
2022/07/20 06:46:55;;;;;;;1.27;0.65;;;;;;;27.12;37.21;100267.53;5069251;28;20154;-85
2022/07/20 06:49:22;;;;;;;1.02;0.77;;;;;;;27.17;36.64;100240.97;5068943;28;20033;-88
2022/07/20 06:51:48;;;;;;;1.75;1.20;;;;;;;27.59;36.26;100279.34;5068695;28;20039;-87
2022/07/20 06:54:13;;;;;;;2.40;1.13;;;;;;;27.79;34.66;100266.94;5050762;28;20032;-86
2022/07/20 06:56:38;;;;;;;5.30;1.73;;;;;;;28.29;33.04;100263.94;5068793;28;20040;-89
2022/07/20 06:59:04;;;;;;;2.55;1.05;;;;;;;28.43;34.52;100245.69;5068976;28;20028;-88
2022/07/20 07:01:29;;;;;;;2.25;0.98;;;;;;;28.95;32.91;100252.28;5068778;28;20506;-87
2022/07/20 07:03:55;;;;;;;1.70;1.10;;;;;;;28.85;32.48;100262.19;5069239;28;20025;-87
2022/07/20 07:06:24;;;;;;;2.17;0.75;;;;;;;29.26;33.91;100253.31;5068869;28;20584;-87
2022/07/20 07:08:49;;;;;;;1.98;1.42;;;;;;;29.59;30.25;100266.88;5069362;28;20033;-86
2022/07/20 07:11:15;;;;;;;2.70;1.10;;;;;;;28.85;31.87;100260.31;5068831;28;20032;-87
2022/07/20 07:13:40;;;;;;;0.90;0.63;;;;;;;28.63;34.08;100239.53;5068608;28;20076;-86
2022/07/20 07:16:06;;;;;;;1.10;0.98;;;;;;;29.26;33.96;100260.59;5068633;28;20033;-86
2022/07/20 07:18:32;;;;;;;0.45;0.43;;;;;;;29.31;33.12;100255.63;5068788;28;20033;-85
2022/07/20 07:20:57;;;;;;;2.13;1.13;;;;;;;29.19;32.42;100205.88;5068593;28;20028;-86
2022/07/20 07:23:23;;;;;;;1.15;0.85;;;;;;;29.35;32.80;100262.53;5068654;28;20250;-86
2022/07/20 07:25:48;;;;;;;1.23;0.77;;;;;;;28.96;34.09;100228.72;5068992;28;20256;-86
2022/07/20 07:28:14;;;;;;;3.38;1.27;;;;;;;29.50;31.43;100219.59;5068843;28;20032;-86
2022/07/20 07:30:39;;;;;;;1.60;1.10;;;;;;;29.72;32.55;100245.78;5069853;28;20501;-88
2022/07/20 07:33:05;;;;;;;2.67;0.95;;;;;;;30.16;31.96;100234.75;5068576;28;20028;-85
2022/07/20 07:35:30;;;;;;;1.73;1.20;;;;;;;30.00;30.77;100218.94;5068541;28;20115;-87
2022/07/20 07:37:56;;;;;;;1.08;0.77;;;;;;;29.79;30.93;100230.66;5068815;28;20040;-87
2022/07/20 07:40:21;;;;;;;2.35;1.13;;;;;;;29.39;31.41;100222.38;5068394;28;20116;-89
2022/07/20 07:42:47;;;;;;;1.13;0.77;;;;;;;29.93;29.96;100228.63;5068367;28;20066;-90
2022/07/20 07:45:12;;;;;;;2.03;1.27;;;;;;;30.22;31.12;100245.06;5068814;28;20059;-87
2022/07/20 07:47:38;;;;;;;1.98;0.93;;;;;;;29.96;29.68;100222.91;5068373;28;20031;-88
2022/07/20 07:50:04;;;;;;;0.88;0.70;;;;;;;29.96;32.25;100225.63;5068201;28;20028;-87
2022/07/20 07:52:30;;;;;;;1.42;1.23;;;;;;;30.64;30.74;100235.94;5067978;28;20044;-87
2022/07/20 07:54:55;;;;;;;2.75;2.05;;;;;;;31.26;29.62;100227.56;5067776;28;20024;-89
2022/07/20 07:57:21;;;;;;;0.77;0.73;;;;;;;31.19;28.92;100210.94;5068186;28;20032;-88
2022/07/20 07:59:46;;;;;;;4.57;1.88;;;;;;;31.32;29.51;100216.09;5067908;28;20039;-92
2022/07/20 08:02:12;;;;;;;2.33;1.02;;;;;;;32.09;27.88;100227.84;5068098;28;20028;-88
2022/07/20 08:04:37;;;;;;;0.77;0.68;;;;;;;31.84;28.57;100224.78;5068182;28;20777;-87
2022/07/20 08:07:02;;;;;;;1.08;0.50;;;;;;;32.06;28.26;100203.59;5067784;28;20032;-86
2022/07/20 08:09:29;;;;;;;0.98;0.82;;;;;;;32.42;26.28;100198.28;5067993;28;20827;-88
2022/07/20 08:11:55;;;;;;;1.63;0.95;;;;;;;31.64;29.21;100234.88;5068208;28;20032;-88
2022/07/20 08:14:20;;;;;;;1.92;1.30;;;;;;;31.48;27.30;100194.56;5067835;28;20131;-88
2022/07/20 08:16:46;;;;;;;0.80;0.60;;;;;;;32.01;27.07;100203.16;5068318;28;20162;-88
2022/07/20 08:19:11;;;;;;;2.03;1.20;;;;;;;31.98;29.00;100198.00;5067620;28;20417;-90
2022/07/20 08:21:37;;;;;;;0.93;0.65;;;;;;;31.52;27.89;100212.31;5067888;28;20029;-89
2022/07/20 08:24:04;;;;;;;1.92;0.65;;;;;;;31.73;27.39;100201.28;5067931;28;20032;-89
2022/07/20 08:26:30;;;;;;;2.35;0.65;;;;;;;31.82;25.88;100185.88;5069917;28;20039;-87
2022/07/20 08:28:55;;;;;;;1.10;0.77;;;;;;;32.84;24.03;100195.88;5070174;28;20482;-87
2022/07/20 08:31:21;;;;;;;2.08;0.60;;;;;;;32.35;24.46;100142.56;5072154;28;20052;-87
2022/07/20 08:33:46;;;;;;;2.38;1.27;;;;;;;32.50;27.75;100184.72;5072375;28;20064;-87
2022/07/20 08:36:12;;;;;;;1.58;0.90;;;;;;;33.28;24.62;100183.31;5067153;28;20032;-87
2022/07/20 08:38:38;;;;;;;2.30;1.20;;;;;;;33.48;22.02;100200.38;5067433;28;20029;-87
2022/07/20 08:41:06;;;;;;;1.08;0.57;;;;;;;33.52;25.27;100199.03;5067044;28;20029;-86
2022/07/20 08:43:33;;;;;;;0.82;0.50;;;;;;;33.66;25.80;100198.47;5067599;28;20039;-87
2022/07/20 08:45:59;;;;;;;0.75;0.75;;;;;;;33.82;21.86;100185.94;5067482;28;20093;-86
2022/07/20 08:48:26;;;;;;;0.95;0.52;;;;;;;34.16;22.39;100175.00;5067208;28;20024;-86
2022/07/20 08:50:53;;;;;;;0.60;0.60;;;;;;;34.39;21.05;100180.75;5067430;28;20039;-87
2022/07/20 08:53:19;;;;;;;0.95;0.50;;;;;;;34.27;22.32;100175.75;5067050;28;20028;-87
2022/07/20 08:55:45;;;;;;;2.92;0.85;;;;;;;34.64;22.17;100164.38;5066775;28;20024;-86
2022/07/20 08:58:11;;;;;;;1.00;0.90;;;;;;;34.33;22.04;100175.94;5066695;28;20051;-86
2022/07/20 09:00:37;;;;;;;0.90;0.45;;;;;;;34.49;21.09;100171.53;5066589;28;20028;-87
2022/07/20 09:03:05;;;;;;;1.27;0.70;;;;;;;34.01;22.04;100176.63;5049058;28;20469;-88
2022/07/20 09:05:36;;;;;;;3.60;0.60;;;;;;;34.21;22.15;100155.34;5067346;28;20024;-87
2022/07/20 09:08:03;;;;;;;10.32;1.65;;;;;;;34.27;21.48;100173.88;5067180;28;20082;-87
2022/07/20 09:10:31;;;;;;;1.60;0.93;;;;;;;33.56;22.73;100173.09;5067065;28;20108;-87
2022/07/20 09:13:04;;;;;;;0.63;0.40;;;;;;;34.38;22.06;100159.84;5065678;28;20055;-88
2022/07/20 09:15:42;;;;;;;0.60;0.47;;;;;;;34.43;20.76;100141.06;5066637;28;20028;-86
2022/07/20 09:18:12;;;;;;;0.80;0.55;;;;;;;34.41;22.08;100159.53;5066447;28;20126;-85
2022/07/20 09:20:46;;;;;;;0.88;0.70;;;;;;;34.32;22.64;100155.06;5066892;28;20460;-86
2022/07/20 09:23:22;;;;;;;2.15;0.73;;;;;;;34.44;22.43;100148.25;5066686;28;20060;-89
2022/07/20 09:26:02;;;;;;;1.15;0.80;;;;;;;33.84;22.63;100126.44;5066551;28;20035;-86
2022/07/20 09:28:43;;;;;;;1.13;0.63;;;;;;;34.25;22.85;100130.22;5066627;28;20039;-85
2022/07/20 09:31:19;;;;;;;0.63;0.63;;;;;;;34.04;20.64;100144.31;5066763;28;20071;-85
2022/07/20 09:33:54;;;;;;;0.70;0.70;;;;;;;33.98;23.48;100135.91;5066106;28;20453;-86
2022/07/20 09:36:23;;;;;;;1.05;0.93;;;;;;;33.96;22.00;100146.19;5066783;28;20032;-86
2022/07/20 09:38:49;;;;;;;0.73;0.60;;;;;;;33.71;21.57;100119.56;5048746;28;20036;-86
2022/07/20 09:41:29;;;;;;;4.50;2.03;;;;;;;34.27;23.00;100116.38;5052358;28;20032;-91
2022/07/20 09:43:56;;;;;;;2.70;0.85;;;;;;;34.73;21.80;100111.31;5070844;28;20115;-89
2022/07/20 09:46:24;;;;;;;3.33;1.60;;;;;;;34.32;22.84;100089.34;5070341;28;20033;-89
2022/07/20 09:48:55;;;;;;;2.75;1.00;;;;;;;34.59;21.23;100131.19;5070257;28;20041;-86
2022/07/20 09:51:33;;;;;;;2.47;1.65;;;;;;;34.24;21.62;100112.09;5070542;28;20115;-86
2022/07/20 09:54:05;;;;;;;3.45;1.20;;;;;;;34.12;21.93;100127.06;5070261;28;20040;-87
2022/07/20 09:56:32;;;;;;;1.33;0.70;;;;;;;34.10;22.70;100122.81;5070264;28;20059;-85
2022/07/20 09:59:00;;;;;;;1.67;0.95;;;;;;;34.55;21.51;100116.09;5070127;28;20952;-89
2022/07/20 10:01:28;;;;;;;1.63;0.70;;;;;;;34.27;21.37;100121.00;5069848;28;20032;-87
2022/07/20 10:03:55;;;;;;;1.30;0.73;;;;;;;33.97;22.54;100099.50;5070205;28;20792;-86
2022/07/20 10:06:23;;;;;;;0.38;0.38;;;;;;;33.63;22.40;100088.53;5070088;28;20033;-85
2022/07/20 10:08:50;;;;;;;1.50;0.88;;;;;;;34.04;22.00;100108.75;5070490;28;20083;-86
2022/07/20 10:11:17;;;;;;;1.23;0.70;;;;;;;33.94;21.63;100099.81;5069782;28;20036;-87
2022/07/20 10:13:44;;;;;;;0.50;0.50;;;;;;;34.24;21.20;100092.06;5069652;28;20510;-87
2022/07/20 10:16:48;;;;;;;0.77;0.38;;;;;;;34.86;20.42;100110.84;5069786;28;20051;-88
2022/07/20 10:19:14;;;;;;;0.57;0.50;;;;;;;34.62;21.71;100078.81;5068584;28;20125;-86
2022/07/20 10:21:51;;;;;;;3.03;0.80;;;;;;;34.24;21.34;100090.19;5069852;28;20071;-85
2022/07/20 10:24:31;;;;;;;0.60;0.43;;;;;;;34.16;21.62;100083.81;5069636;28;20515;-87
2022/07/20 10:27:22;;;;;;;1.17;0.50;;;;;;;33.98;22.42;100089.41;5068654;28;20032;-87
2022/07/20 10:29:52;;;;;;;0.80;0.70;;;;;;;34.23;22.02;100052.88;5069819;28;20029;-87
2022/07/20 10:32:20;;;;;;;4.10;1.77;;;;;;;34.56;21.56;100052.94;5068158;28;20032;-85
2022/07/20 10:34:58;;;;;;;0.82;0.65;;;;;;;34.47;21.75;100064.91;5069029;28;20106;-86
2022/07/20 10:37:30;;;;;;;0.40;0.40;;;;;;;34.28;22.17;100082.50;5069646;28;20529;-86
2022/07/20 10:40:21;;;;;;;2.33;0.93;;;;;;;34.38;22.19;100074.13;5069508;28;20033;-84
2022/07/20 10:43:13;;;;;;;0.88;0.50;;;;;;;33.74;22.02;100080.09;5069472;28;20402;-85
2022/07/20 10:45:39;;;;;;;0.73;0.55;;;;;;;33.75;22.88;100070.00;5064658;28;20075;-84
2022/07/20 10:48:14;;;;;;;1.67;0.88;;;;;;;34.29;21.87;100070.53;5051402;28;20067;-85
2022/07/20 10:50:44;;;;;;;;;;;;;;;34.34;21.43;100070.91;5069611;28;20081;-85
2022/07/20 10:53:13;;;;;;;2.45;0.70;;;;;;;34.51;21.21;100066.28;5068847;28;19926;-84
2022/07/20 10:55:38;;;;;;;2.05;1.30;;;;;;;34.38;20.91;100063.19;5068728;28;20041;-87
2022/07/20 10:58:12;;;;;;;1.33;1.02;;;;;;;34.06;22.67;100057.47;5051092;28;20494;-85
2022/07/20 11:00:41;;;;;;;1.17;0.90;;;;;;;34.16;22.93;100031.81;5068744;28;20437;-86
2022/07/20 11:03:33;;;;;;;0.73;0.60;;;;;;;33.96;26.34;100023.91;5069026;28;20040;-85
2022/07/20 11:06:23;;;;;;;0.68;0.60;;;;;;;33.50;23.41;100006.97;5068504;28;20277;-86
2022/07/20 11:08:58;;;;;;;1.08;0.82;;;;;;;33.56;25.69;100030.91;5069070;28;20029;-86
2022/07/20 11:11:30;;;;;;;2.92;1.27;;;;;;;33.70;23.54;100032.16;5068801;28;20029;-85
2022/07/20 11:13:56;;;;;;;1.42;0.90;;;;;;;34.56;23.24;99994.59;5068897;28;20063;-86
2022/07/20 11:16:24;;;;;;;2.15;1.10;;;;;;;35.22;21.32;100016.41;5068563;28;20041;-84
2022/07/20 11:18:51;;;;;;;1.05;0.68;;;;;;;34.99;24.95;100032.72;5068836;28;20553;-86
2022/07/20 11:21:26;;;;;;;1.75;1.08;;;;;;;35.15;21.15;100032.72;5068173;28;20604;-86
2022/07/20 11:23:51;;;;;;;0.93;0.80;;;;;;;35.58;20.26;100000.38;5068569;28;20502;-85
2022/07/20 11:26:19;;;;;;;5.65;1.27;;;;;;;35.06;21.66;100009.09;5068432;28;20036;-82